Terminal Aerodrome Forecast
Issued by NWS

Home | Current Version | Previous Version | Text Only | Print | Product List | Glossary On
Versions: 1 2 3 4 5 6 7 8 9 10 11 12 13 14 15 16 17
000
FTAK31 PANC 042331
TAFACD
TAF
PACD 042331Z 0500/0524 34006KT P6SM VCSH FEW010 BKN035
     FM050300 04011KT P6SM VCSH SCT025 BKN035
     FM050900 02014KT P6SM VCSH BKN025
     FM051400 34014KT P6SM VCSH BKN025=

USA.gov is the U.S. government's official web portal to all federal, state and local government web resources and services.